Pagrindinis puslapis
METAR-TAF:

METAR-TAF

Oro uostai :

Sankt Moricas, Šveicarija

platuma: 46-32-03N, ilguma: 9-53-03E, Aukštis: 1707 m

Dabartinis oras

Ataskaita buvo paskelbta 18 minutes, ne 07:50 UTC
Vėjas 2 kt iš Vakarų/Pietvakarių
Temperatūra -8°C
Drėgmė 85%
Slėgis 1021 hPa
Matomumas 10 km arba daugiau
Su prošvaistėmis ne aukštis 6500 ft

METAR: LSZS 250750Z 24002KT 9999 BKN065 M08/M10 Q1021 RMK C TL170

Laikas: 09:08 (08:08 UTC)

Prognozė

Ataskaita buvo paskelbta 2 valandos ir 43 minutes, ne 05:25 UTC
Prognozė galioja nuo 25 metu 06 UTC su 25 metu 15 UTC
Vėjas 3 kt nuo kintamojo kryptimis
Matomumas 10 km arba daugiau
Su prošvaistėmis ne aukštis 6000 ft

TAF: LSZS 250525Z 2506/2515 VRB03KT 9999 BKN060 TX02/2515Z

Orai ataskaitas ir orų prognozės (METAR, TAF).

turimą stotys yra geltonos ir raudonos taškus žemėlapyje.

Perkelti pele per norėdami pamatyti stoties vardą.

Tada spustelėkite, norėdami matyti oro stebėjimo ir prognozės.

Norėdami pakeisti žemėlapį: spustelėkite ant žalios mygtukų su juodo kryžiaus žemyn,; žalią mygtuką su brūkšneliu, jei norite nutolinti; arba žalių rodyklių gretimoms žemėlapius.


METAR-TAF: